createdAt,value
2018-08-23T06:27:39.454Z,23.60
2018-08-23T06:30:08.736Z,23.80
2018-08-23T06:32:37.891Z,24.80
2018-08-23T06:35:06.635Z,25.50
2018-08-23T06:37:36.932Z,26.10
2018-08-23T06:40:06.301Z,27.10
2018-08-23T06:42:47.037Z,28.50
2018-08-23T06:50:17.021Z,29.90
2018-08-23T06:52:49.515Z,29.50
2018-08-23T06:55:23.473Z,30.10
2018-08-23T06:57:56.344Z,30.70
2018-08-23T07:00:26.466Z,31.30
2018-08-23T07:02:54.986Z,31.80
2018-08-23T07:05:23.640Z,32.50
2018-08-23T07:07:52.266Z,32.50
2018-08-23T07:10:21.415Z,33.30
2018-08-23T07:12:50.469Z,33.50
2018-08-23T07:15:19.068Z,33.80
2018-08-23T07:17:48.314Z,33.70
2018-08-23T07:20:18.250Z,34.50
2018-08-23T07:22:47.084Z,34.80
2018-08-23T07:25:18.665Z,35.10
2018-08-23T07:27:47.168Z,34.80
2018-08-23T07:30:18.909Z,34.90
2018-08-23T07:32:48.859Z,34.70
2018-08-23T07:35:18.240Z,34.00
2018-08-23T07:37:50.100Z,33.80
2018-08-23T07:40:20.485Z,33.60
2018-08-23T07:42:50.441Z,33.40
2018-08-23T07:45:18.902Z,33.40
2018-08-23T07:47:48.782Z,33.90
2018-08-23T07:50:17.518Z,33.90
2018-08-23T07:52:49.095Z,34.10
2018-08-23T07:55:17.688Z,34.20
2018-08-23T07:57:46.464Z,34.90
2018-08-23T08:05:33.010Z,35.60
2018-08-23T08:08:03.010Z,35.10
2018-08-23T08:10:34.103Z,35.50
2018-08-23T08:13:02.590Z,35.40
2018-08-23T08:15:31.031Z,35.10
2018-08-23T08:18:19.498Z,35.30
2018-08-23T08:20:54.520Z,36.50
2018-08-23T08:23:23.020Z,37.20
2018-08-23T08:25:52.058Z,38.00
2018-08-23T08:28:20.561Z,38.90
2018-08-23T08:30:56.857Z,39.00
2018-08-23T08:33:25.669Z,39.70
2018-08-23T08:36:01.071Z,40.30
2018-08-23T08:38:29.955Z,39.90
2018-08-23T08:40:58.577Z,39.10
2018-08-23T08:43:27.450Z,38.60
2018-08-23T08:45:58.053Z,39.20
2018-08-23T08:48:32.417Z,38.70
2018-08-23T08:51:32.239Z,38.40
2018-08-23T08:54:02.654Z,38.80
2018-08-23T08:56:37.806Z,39.50
2018-08-23T08:59:06.377Z,39.70
2018-08-23T09:01:34.845Z,40.30
2018-08-23T09:04:03.887Z,41.00
2018-08-23T09:07:54.789Z,41.50
2018-08-23T09:10:23.246Z,42.40
2018-08-23T09:12:51.953Z,43.10
2018-08-23T09:15:21.438Z,43.20
2018-08-23T09:17:52.773Z,44.10
2018-08-23T09:20:21.871Z,44.30
2018-08-23T09:22:53.882Z,42.50
2018-08-23T09:25:32.706Z,42.10
2018-08-23T09:28:01.809Z,42.30
2018-08-23T09:30:31.742Z,43.10
2018-08-23T09:33:06.587Z,42.80
2018-08-23T09:35:35.467Z,42.70
2018-08-23T09:38:11.150Z,42.10
2018-08-23T09:40:39.700Z,41.60
2018-08-23T09:43:08.249Z,40.60
2018-08-23T09:45:37.588Z,42.00
2018-08-23T09:48:06.353Z,43.20
2018-08-23T09:50:34.924Z,44.20
2018-08-23T09:53:10.101Z,45.20
2018-08-23T09:55:39.394Z,45.60
2018-08-23T09:58:12.788Z,45.50
2018-08-23T10:00:46.663Z,45.40
2018-08-23T10:08:25.369Z,46.00
2018-08-23T10:10:59.644Z,45.60
2018-08-23T10:13:33.567Z,44.60
2018-08-23T10:16:07.652Z,44.10
2018-08-23T10:18:41.502Z,42.80
2018-08-23T10:21:10.607Z,41.60
2018-08-23T10:23:39.090Z,41.10
2018-08-23T10:26:23.654Z,40.80
2018-08-23T10:28:52.578Z,40.30
2018-08-23T10:31:21.096Z,39.40
2018-08-23T10:33:49.632Z,38.90
2018-08-23T10:36:18.139Z,38.60
2018-08-23T10:38:47.079Z,37.90
2018-08-23T10:41:17.453Z,37.30
2018-08-23T10:43:48.209Z,36.90
2018-08-23T10:46:19.481Z,36.70
2018-08-23T10:48:47.932Z,36.20
2018-08-23T10:51:17.471Z,35.90
2018-08-23T10:53:45.974Z,35.60
2018-08-23T11:01:08.398Z,35.50
2018-08-23T11:03:36.875Z,35.70
2018-08-23T11:06:05.658Z,35.80
2018-08-23T11:08:36.514Z,35.30
2018-08-23T11:11:10.781Z,34.90
2018-08-23T11:13:44.701Z,34.70
2018-08-23T11:16:18.711Z,34.40
2018-08-23T11:18:53.801Z,34.40
2018-08-23T11:21:22.335Z,34.60
2018-08-23T11:23:50.829Z,34.70
2018-08-23T11:26:26.561Z,34.70
2018-08-23T11:28:55.536Z,34.40
2018-08-23T11:31:30.241Z,34.40
2018-08-23T11:33:58.714Z,34.60
2018-08-23T11:36:27.222Z,34.60
2018-08-23T11:38:55.713Z,34.30
2018-08-23T11:41:24.193Z,34.20
2018-08-23T11:43:52.666Z,33.90
2018-08-23T11:46:22.535Z,33.80
2018-08-23T11:48:51.259Z,33.80
2018-08-23T11:51:20.182Z,33.80
2018-08-23T11:53:49.422Z,34.00
2018-08-23T11:56:17.955Z,34.30
2018-08-23T11:58:46.498Z,34.40
2018-08-23T12:06:11.305Z,34.10
2018-08-23T12:08:42.846Z,33.80
2018-08-23T12:11:11.441Z,33.70
2018-08-23T12:13:43.135Z,33.60
2018-08-23T12:16:11.621Z,33.30
2018-08-23T12:18:40.153Z,33.20
2018-08-23T12:21:08.698Z,32.90
2018-08-23T12:23:37.231Z,32.70
2018-08-23T12:26:05.830Z,32.70
2018-08-23T12:28:40.389Z,32.90
2018-08-23T12:31:09.565Z,33.20
2018-08-23T12:33:38.021Z,33.60
2018-08-23T12:36:08.131Z,33.80
2018-08-23T12:38:41.891Z,33.80
2018-08-23T12:41:16.257Z,33.90
2018-08-23T12:43:46.459Z,34.10
2018-08-23T12:51:24.233Z,34.50
2018-08-23T12:53:52.769Z,34.70
2018-08-23T12:56:21.322Z,34.90
2018-08-23T12:58:49.817Z,35.00
2018-08-23T13:01:18.360Z,34.80
2018-08-23T13:03:46.867Z,34.60
2018-08-23T13:11:11.750Z,34.40
2018-08-23T13:13:40.250Z,34.40
2018-08-23T13:16:08.768Z,34.40
2018-08-23T13:18:37.365Z,34.40
2018-08-23T13:21:06.069Z,34.50
2018-08-23T13:23:34.554Z,34.80
2018-08-23T13:26:03.155Z,34.80
2018-08-23T13:28:31.725Z,34.50
2018-08-23T13:31:00.373Z,34.30
2018-08-23T13:33:30.071Z,34.30
2018-08-23T13:35:58.566Z,34.30
2018-08-23T13:38:27.146Z,34.40
2018-08-23T13:40:55.719Z,34.40
2018-08-23T13:43:24.782Z,34.20
2018-08-23T13:45:53.256Z,34.20
2018-08-23T13:48:22.150Z,34.20
2018-08-23T13:50:50.635Z,34.00
2018-08-23T13:53:19.290Z,33.50
2018-08-23T13:55:48.193Z,33.30
2018-08-23T13:58:17.429Z,33.10
2018-08-23T14:00:46.118Z,33.10
2018-08-23T14:08:09.462Z,32.80
2018-08-23T14:10:37.953Z,32.70
2018-08-23T14:13:06.466Z,32.70
2018-08-23T14:15:40.882Z,32.70
2018-08-23T14:18:09.429Z,33.00
2018-08-23T14:20:38.328Z,33.10
2018-08-23T14:23:06.881Z,33.40
2018-08-23T14:25:36.055Z,33.60
2018-08-23T14:28:04.859Z,33.90
2018-08-23T14:30:33.826Z,34.00
2018-08-23T14:33:02.361Z,33.90
2018-08-23T14:35:32.055Z,34.10
2018-08-23T14:38:01.390Z,34.00
2018-08-23T14:40:30.043Z,34.00
2018-08-23T14:42:58.583Z,33.50
2018-08-23T14:45:30.650Z,33.00
2018-08-23T14:48:04.678Z,32.70
2018-08-23T14:50:34.342Z,32.40
2018-08-23T14:53:03.118Z,32.10
2018-08-23T14:55:37.235Z,31.90
2018-08-23T14:58:05.943Z,31.70
2018-08-23T15:00:35.774Z,31.40
2018-08-23T15:03:04.316Z,31.10
2018-08-23T15:05:32.894Z,30.80
2018-08-23T15:08:01.398Z,30.40
2018-08-23T15:10:29.918Z,30.00
2018-08-23T15:12:58.454Z,29.60
2018-08-23T15:15:33.176Z,28.90
2018-08-23T15:18:01.654Z,28.20
2018-08-23T15:20:30.198Z,27.60
2018-08-23T15:22:58.716Z,27.20
2018-08-23T15:25:27.792Z,26.40
2018-08-23T15:27:56.273Z,25.80
2018-08-23T15:30:25.484Z,25.40
2018-08-23T15:32:54.070Z,25.10
2018-08-23T15:35:23.040Z,24.50
2018-08-23T15:37:55.031Z,24.50
2018-08-23T15:40:23.624Z,24.20
2018-08-23T15:45:20.971Z,22.50
2018-08-23T15:47:49.728Z,21.20
2018-08-23T15:50:18.382Z,20.50
2018-08-23T15:52:47.030Z,20.30
2018-08-23T16:00:10.421Z,19.90
2018-08-23T16:02:39.051Z,19.80
2018-08-23T16:05:07.560Z,19.80
2018-08-23T16:07:36.298Z,19.60
2018-08-23T16:10:06.602Z,19.40
2018-08-23T16:12:35.352Z,19.30
2018-08-23T16:15:09.167Z,19.20
2018-08-23T16:17:42.960Z,19.20
2018-08-23T16:20:17.133Z,19.40
2018-08-23T16:22:45.923Z,19.40
2018-08-23T16:30:07.446Z,19.70
2018-08-23T16:32:36.824Z,19.90
2018-08-23T16:35:05.362Z,20.10
2018-08-23T16:37:35.041Z,20.20
2018-08-23T16:40:04.321Z,20.30
2018-08-23T16:42:33.004Z,20.40
2018-08-23T16:45:01.809Z,20.60
2018-08-23T16:47:30.326Z,20.70
2018-08-23T16:49:58.846Z,20.80
2018-08-23T16:52:27.341Z,21.10
2018-08-23T16:54:55.953Z,21.30
2018-08-23T16:57:24.727Z,21.40
2018-08-23T16:59:53.291Z,21.40
2018-08-23T17:02:22.246Z,21.40
2018-08-23T17:04:50.726Z,21.50
2018-08-23T17:07:19.257Z,21.60
2018-08-23T17:09:47.728Z,21.70
2018-08-23T17:12:17.390Z,21.60
2018-08-23T17:14:45.970Z,21.50
2018-08-23T17:22:09.843Z,21.40
2018-08-23T17:24:38.635Z,21.30
2018-08-23T17:27:07.029Z,21.20
2018-08-23T17:29:35.532Z,21.20
2018-08-23T17:32:04.050Z,21.10
2018-08-23T17:34:32.559Z,21.20
2018-08-23T17:37:01.124Z,21.10
2018-08-23T17:39:29.658Z,21.20
2018-08-23T17:41:58.978Z,21.20
2018-08-23T17:44:27.773Z,21.20
2018-08-23T17:46:56.269Z,21.10
2018-08-23T17:49:24.801Z,21.00
2018-08-23T17:51:53.323Z,20.90
2018-08-23T17:54:21.781Z,20.80
2018-08-23T17:56:50.273Z,20.70
2018-08-23T17:59:18.770Z,20.70
2018-08-23T18:01:47.262Z,20.60
2018-08-23T18:09:11.245Z,20.60
2018-08-23T18:11:40.273Z,20.60
2018-08-23T18:14:09.544Z,20.70
2018-08-23T18:16:43.375Z,20.70
2018-08-23T18:19:12.775Z,20.70
2018-08-23T18:21:42.231Z,20.70
2018-08-23T18:24:10.940Z,20.80
2018-08-23T18:26:39.389Z,20.80
2018-08-23T18:29:07.894Z,20.80
2018-08-23T18:31:37.041Z,20.70
2018-08-23T18:34:05.698Z,20.70
2018-08-23T18:36:34.162Z,20.70
2018-08-23T18:39:02.722Z,20.60
2018-08-23T18:41:31.841Z,20.50
2018-08-23T18:44:00.995Z,20.50
2018-08-23T18:46:29.602Z,20.60
2018-08-23T18:48:58.935Z,20.60
2018-08-23T18:51:29.173Z,20.60
2018-08-23T18:53:58.270Z,20.60
2018-08-23T18:56:27.230Z,20.60
2018-08-23T18:58:56.545Z,20.60
2018-08-23T19:01:25.126Z,20.70
2018-08-23T19:03:54.079Z,20.60
2018-08-23T19:06:28.202Z,20.60
2018-08-23T19:08:56.910Z,20.60
2018-08-23T19:11:25.519Z,20.60
2018-08-23T19:13:54.093Z,20.60
2018-08-23T19:16:27.898Z,20.50
2018-08-23T19:18:56.614Z,20.40
2018-08-23T19:21:25.181Z,20.40
2018-08-23T19:23:53.654Z,20.30
2018-08-23T19:26:22.158Z,20.30
2018-08-23T19:28:50.633Z,20.30
2018-08-23T19:31:19.481Z,20.40
2018-08-23T19:33:48.806Z,20.40
2018-08-23T19:36:17.412Z,20.50
2018-08-23T19:38:45.865Z,20.60
2018-08-23T19:46:14.033Z,20.70
2018-08-23T19:48:43.061Z,20.50
2018-08-23T19:51:11.557Z,20.50
2018-08-23T19:53:40.125Z,20.60
2018-08-23T19:56:08.649Z,20.60
2018-08-23T19:58:37.278Z,20.70
2018-08-23T20:01:06.406Z,20.70
2018-08-23T20:03:34.912Z,20.80
2018-08-23T20:06:03.507Z,20.80
2018-08-23T20:08:32.186Z,20.80
2018-08-23T20:11:00.764Z,20.90
2018-08-23T20:13:29.336Z,20.90
2018-08-23T20:15:58.236Z,20.90
2018-08-23T20:18:26.779Z,20.90
2018-08-23T20:20:56.532Z,20.90
2018-08-23T20:23:25.078Z,20.90
2018-08-23T20:25:53.541Z,20.90
2018-08-23T20:28:22.166Z,20.90
2018-08-23T20:30:50.717Z,20.80
2018-08-23T20:33:19.335Z,20.70
2018-08-23T20:35:47.978Z,20.70
2018-08-23T20:38:17.549Z,20.70
2018-08-23T20:40:46.070Z,20.50
2018-08-23T20:48:08.754Z,20.40
2018-08-23T20:50:37.402Z,20.30
2018-08-23T20:53:05.989Z,20.40
2018-08-23T20:55:34.512Z,20.40
2018-08-23T20:58:03.048Z,20.40
2018-08-23T21:00:31.643Z,20.40
2018-08-23T21:03:00.133Z,20.40
2018-08-23T21:05:28.621Z,20.40
2018-08-23T21:07:57.774Z,20.30
2018-08-23T21:10:26.310Z,20.30
2018-08-23T21:12:54.794Z,20.20
2018-08-23T21:15:23.961Z,20.20
2018-08-23T21:17:52.531Z,20.20
2018-08-23T21:20:21.042Z,20.20
2018-08-23T21:22:49.548Z,20.20
2018-08-23T21:25:18.246Z,20.10
2018-08-23T21:27:46.723Z,20.10
2018-08-23T21:36:49.432Z,20.30
2018-08-23T21:39:17.953Z,20.20
2018-08-23T21:41:48.253Z,20.20
2018-08-23T21:44:17.489Z,20.30
2018-08-23T21:46:45.970Z,20.30
2018-08-23T21:54:10.761Z,20.30
2018-08-23T21:56:39.245Z,20.30
2018-08-23T21:59:07.811Z,20.30
2018-08-23T22:01:36.338Z,20.30
2018-08-23T22:04:04.854Z,20.30
2018-08-23T22:06:33.357Z,20.30
2018-08-23T22:09:01.902Z,20.30
2018-08-23T22:11:30.462Z,20.20
2018-08-23T22:13:59.558Z,20.20
2018-08-23T22:16:28.411Z,20.30
2018-08-23T22:18:56.889Z,20.10
2018-08-23T22:21:25.390Z,20.00
2018-08-23T22:23:53.925Z,19.90
2018-08-23T22:26:23.658Z,19.90
2018-08-23T22:28:52.147Z,19.90
2018-08-23T22:31:20.669Z,19.80
2018-08-23T22:33:49.661Z,19.90
2018-08-23T22:36:18.181Z,19.90
2018-08-23T22:38:47.070Z,19.80
2018-08-23T22:46:09.209Z,19.70
2018-08-23T22:48:37.672Z,19.70
2018-08-23T22:51:07.648Z,19.70
2018-08-23T22:53:36.100Z,19.50
2018-08-23T22:56:04.570Z,19.40
2018-08-23T22:58:33.071Z,19.40
2018-08-23T23:01:01.598Z,19.30
2018-08-23T23:03:35.302Z,19.30
2018-08-23T23:06:03.862Z,19.30
2018-08-23T23:08:32.338Z,19.30
2018-08-23T23:11:00.828Z,19.20
2018-08-23T23:13:29.337Z,19.40
2018-08-23T23:15:57.802Z,19.40
2018-08-23T23:18:26.290Z,19.30
2018-08-23T23:20:54.833Z,19.20
2018-08-23T23:23:24.232Z,19.00
2018-08-23T23:25:52.872Z,18.90
2018-08-23T23:28:21.460Z,18.80
2018-08-23T23:30:50.193Z,18.90
2018-08-23T23:33:18.681Z,18.90
2018-08-23T23:35:47.186Z,18.80
2018-08-23T23:38:17.386Z,18.80
2018-08-23T23:40:45.854Z,18.90
2018-08-23T23:48:12.986Z,18.90
2018-08-23T23:50:41.466Z,19.00
2018-08-23T23:53:11.915Z,19.00
2018-08-23T23:55:40.426Z,19.10
2018-08-23T23:58:08.893Z,19.20
